PWSweather.com
Personal Weather Stations
Station Observations
REUBENS
Camas Prairie, Reubens, ID

Camas PrairieReubens, ID

Lat: 46.35417, Lon: -116.53167

Elevation: 3480

Station Type: Davis VantagePro 2

http://www.theobrienranch.com/wx/wx.htm

High Low Average
Temperature 67.6°F19.8°F 45.2°F7.3°F 57.4°F14.1°F
Dew Point 41.7°F5.4°F 35.7°F2.1°F 39.1°F3.9°F
Winds 3.1 mph NNW5.0 mph NNW Calm Calm 1.4 mph 2.3 mph
Wind Gusts 11.0 mph17.7 mph -- 3.2 mph5.1 mph
Humidity 71% 37% 51%
Pressure 29.97 in1014.90 in 29.90 in1012.50 in -
Precipitation 0.00 in0.00 in - -
Hour Temp Dew Point Humidity Winds Wind Gusts Pressure Precip Precip Rate Daily Precip Total
12:00 AM 53.7°F12.1°C 44.2°F6.8°C 70% 0.4 mph SSW0.6 kmh SSW 1.0 mph1.6 kmh 29.80 in1009.1 mb 0.00 in0.0 mm 0.00 in/hr0.0 mm/hr 0.00 in0.0 mm
12:30 AM 49.9°F9.9°C 42.3°F5.7°C 75% 5.3 mph S8.5 kmh S 6.0 mph9.7 kmh 29.82 in1009.8 mb 0.00 in0.0 mm 0.00 in/hr0.0 mm/hr 0.00 in0.0 mm
01:00 AM 50.4°F10.2°C 43.8°F6.6°C 78% 4.8 mph SW7.7 kmh SW 6.0 mph9.7 kmh 29.82 in1009.8 mb 0.00 in0.0 mm 0.00 in/hr0.0 mm/hr 0.00 in0.0 mm
01:30 AM 52.3°F11.3°C 44.6°F7.0°C 75% 5.6 mph WSW9.0 kmh WSW 6.0 mph9.7 kmh 29.81 in1009.5 mb 0.00 in0.0 mm 0.00 in/hr0.0 mm/hr 0.00 in0.0 mm
02:00 AM 52.8°F11.6°C 44.7°F7.1°C 74% 4.3 mph WSW6.9 kmh WSW 5.0 mph8.0 kmh 29.82 in1009.8 mb 0.00 in0.0 mm 0.00 in/hr0.0 mm/hr 0.00 in0.0 mm
02:30 AM 52.7°F11.5°C 44.6°F7.0°C 74% 4.3 mph WSW6.9 kmh WSW 5.0 mph8.0 kmh 29.83 in1010.2 mb 0.00 in0.0 mm 0.00 in/hr0.0 mm/hr 0.00 in0.0 mm
03:00 AM 52.5°F11.4°C 44.4°F6.9°C 74% 6.8 mph W10.9 kmh W 9.0 mph14.5 kmh 29.84 in1010.5 mb 0.00 in0.0 mm 0.00 in/hr0.0 mm/hr 0.00 in0.0 mm
03:30 AM 54.1°F12.3°C 44.2°F6.8°C 69% 5.5 mph W8.9 kmh W 8.0 mph12.9 kmh 29.84 in1010.5 mb 0.00 in0.0 mm 0.00 in/hr0.0 mm/hr 0.00 in0.0 mm
04:00 AM 54.1°F12.3°C 44.2°F6.8°C 69% 4.8 mph WSW7.7 kmh WSW 5.0 mph8.0 kmh 29.84 in1010.5 mb 0.00 in0.0 mm 0.00 in/hr0.0 mm/hr 0.00 in0.0 mm
04:30 AM 52.3°F11.3°C 43.9°F6.6°C 73% 2.9 mph WSW4.7 kmh WSW 3.0 mph4.8 kmh 29.85 in1010.8 mb 0.00 in0.0 mm 0.00 in/hr0.0 mm/hr 0.00 in0.0 mm
05:00 AM 50.3°F10.2°C 42.7°F5.9°C 75% 5.3 mph WSW8.5 kmh WSW 6.0 mph9.7 kmh 29.88 in1011.9 mb 0.00 in0.0 mm 0.00 in/hr0.0 mm/hr 0.00 in0.0 mm
05:30 AM 48.5°F9.2°C 42.0°F5.6°C 78% 5.0 mph SW8.0 kmh SW 7.0 mph11.3 kmh 29.88 in1011.9 mb 0.00 in0.0 mm 0.00 in/hr0.0 mm/hr 0.00 in0.0 mm
06:00 AM 50.5°F10.3°C 42.1°F5.6°C 73% 10.7 mph SW17.2 kmh SW 12.0 mph19.3 kmh 29.90 in1012.5 mb 0.00 in0.0 mm 0.00 in/hr0.0 mm/hr 0.00 in0.0 mm
06:30 AM 49.4°F9.7°C 41.5°F5.3°C 74% 3.9 mph WSW6.3 kmh WSW 5.0 mph8.0 kmh 29.90 in1012.5 mb 0.00 in0.0 mm 0.00 in/hr0.0 mm/hr 0.00 in0.0 mm
07:00 AM 48.3°F9.1°C 41.1°F5.1°C 76% 2.8 mph SW4.5 kmh SW 4.0 mph6.4 kmh 29.93 in1013.5 mb 0.00 in0.0 mm 0.00 in/hr0.0 mm/hr 0.00 in0.0 mm
07:30 AM 50.6°F10.3°C 41.9°F5.5°C 72% 2.6 mph SW4.2 kmh SW 3.0 mph4.8 kmh 29.93 in1013.5 mb 0.00 in0.0 mm 0.00 in/hr0.0 mm/hr 0.00 in0.0 mm
08:00 AM 52.4°F11.3°C 42.2°F5.7°C 68% 2.6 mph SW4.2 kmh SW 3.0 mph4.8 kmh 29.94 in1013.9 mb 0.00 in0.0 mm 0.00 in/hr0.0 mm/hr 0.00 in0.0 mm
08:30 AM 53.7°F12.1°C 42.6°F5.9°C 66% 2.9 mph WNW4.7 kmh WNW 4.0 mph6.4 kmh 29.93 in1013.5 mb 0.00 in0.0 mm 0.00 in/hr0.0 mm/hr 0.00 in0.0 mm
09:00 AM 55.1°F12.8°C 43.5°F6.4°C 65% 0.5 mph WNW0.8 kmh WNW 3.0 mph4.8 kmh 29.94 in1013.9 mb 0.00 in0.0 mm 0.00 in/hr0.0 mm/hr 0.00 in0.0 mm
09:30 AM 55.5°F13.1°C 41.8°F5.4°C 60% 1.0 mph W1.6 kmh W 3.0 mph4.8 kmh 29.95 in1014.2 mb 0.00 in0.0 mm 0.00 in/hr0.0 mm/hr 0.00 in0.0 mm
10:00 AM 58.6°F14.8°C 41.5°F5.3°C 53% 8.2 mph W13.2 kmh W 10.0 mph16.1 kmh 29.95 in1014.2 mb 0.00 in0.0 mm 0.00 in/hr0.0 mm/hr 0.00 in0.0 mm
10:30 AM 58.9°F14.9°C 40.8°F4.9°C 51% 8.0 mph WNW12.9 kmh WNW 5.0 mph8.0 kmh 29.95 in1014.2 mb 0.00 in0.0 mm 0.00 in/hr0.0 mm/hr 0.00 in0.0 mm
11:00 AM 58.7°F14.8°C 40.6°F4.8°C 51% 6.4 mph WSW10.3 kmh WSW 12.0 mph19.3 kmh 29.95 in1014.2 mb 0.00 in0.0 mm 0.00 in/hr0.0 mm/hr 0.00 in0.0 mm
11:30 AM 61.1°F16.2°C 41.3°F5.2°C 48% 2.4 mph W3.9 kmh W 4.0 mph6.4 kmh 29.95 in1014.2 mb 0.00 in0.0 mm 0.00 in/hr0.0 mm/hr 0.00 in0.0 mm
12:00 PM 61.7°F16.5°C 40.7°F4.8°C 46% 5.9 mph W9.5 kmh W 10.0 mph16.1 kmh 29.95 in1014.2 mb 0.00 in0.0 mm 0.00 in/hr0.0 mm/hr 0.00 in0.0 mm
12:30 PM 61.2°F16.2°C 42.4°F5.8°C 50% 1.8 mph WNW2.9 kmh WNW 4.0 mph6.4 kmh 29.95 in1014.2 mb 0.00 in0.0 mm 0.00 in/hr0.0 mm/hr 0.00 in0.0 mm
01:00 PM 63.6°F17.6°C 41.9°F5.5°C 45% 8.7 mph W14.0 kmh W 11.0 mph17.7 kmh 29.93 in1013.5 mb 0.00 in0.0 mm 0.00 in/hr0.0 mm/hr 0.00 in0.0 mm
01:30 PM 67.6°F19.8°C 43.0°F6.1°C 41% 4.3 mph WNW6.9 kmh WNW 5.0 mph8.0 kmh 29.91 in1012.9 mb 0.00 in0.0 mm 0.00 in/hr0.0 mm/hr 0.00 in0.0 mm
02:00 PM 63.8°F17.7°C 40.9°F4.9°C 43% 4.7 mph W7.6 kmh W 10.0 mph16.1 kmh 29.92 in1013.2 mb 0.00 in0.0 mm 0.00 in/hr0.0 mm/hr 0.00 in0.0 mm
02:30 PM 64.0°F17.8°C 42.2°F5.7°C 45% 3.8 mph N6.1 kmh N 7.0 mph11.3 kmh 29.92 in1013.2 mb 0.00 in0.0 mm 0.00 in/hr0.0 mm/hr 0.00 in0.0 mm
03:00 PM 68.2°F20.1°C 42.3°F5.7°C 39% 3.1 mph NW5.0 kmh NW 6.0 mph9.7 kmh 29.89 in1012.2 mb 0.00 in0.0 mm 0.00 in/hr0.0 mm/hr 0.00 in0.0 mm
03:30 PM 67.2°F19.6°C 39.3°F4.1°C 36% 8.2 mph WNW13.2 kmh WNW 9.0 mph14.5 kmh 29.89 in1012.2 mb 0.00 in0.0 mm 0.00 in/hr0.0 mm/hr 0.00 in0.0 mm
04:00 PM 66.0°F18.9°C 39.6°F4.2°C 38% 3.6 mph WNW5.8 kmh WNW 12.0 mph19.3 kmh 29.90 in1012.5 mb 0.00 in0.0 mm 0.00 in/hr0.0 mm/hr 0.00 in0.0 mm
04:30 PM 65.9°F18.8°C 39.6°F4.2°C 38% 1.6 mph NW2.6 kmh NW 4.0 mph6.4 kmh 29.91 in1012.9 mb 0.00 in0.0 mm 0.00 in/hr0.0 mm/hr 0.00 in0.0 mm